Time;durP1;ratioP1;P1;durP2;ratioP2;P2;SDS_P1;SDS_P2;PMS_P1;PMS_P2;Temp;Humidity;BMP_temperature;BMP_pressure;BME280_temperature;BME280_humidity;BME280_pressure;Samples;Min_cycle;Max_cycle;Signal;HPM_P1;HPM_P2
2024/03/27 05:31:09;;;;;;;0.10;0.10;;;5.00;84.60;;;;;;5685177;22;20466;-78
2024/03/27 05:33:34;;;;;;;0.10;0.10;;;5.00;84.60;;;;;;5027400;28;20120;-77
2024/03/27 05:36:00;;;;;;;0.10;0.10;;;5.00;85.00;;;;;;5039958;28;20028;-78
2024/03/27 05:38:26;;;;;;;0.20;0.20;;;5.00;85.00;;;;;;5052581;28;20044;-78
2024/03/27 05:40:51;;;;;;;0.10;0.10;;;5.00;85.00;;;;;;5036928;28;20071;-78
2024/03/27 05:43:18;;;;;;;0.10;0.10;;;5.00;84.90;;;;;;5056330;28;20057;-78
2024/03/27 05:45:45;;;;;;;0.20;0.20;;;5.00;85.10;;;;;;5033334;28;20032;-78
2024/03/27 05:48:11;;;;;;;0.10;0.10;;;5.00;85.00;;;;;;5020883;28;20365;-78
2024/03/27 05:50:36;;;;;;;0.10;0.10;;;5.00;85.20;;;;;;5022131;28;20166;-77
2024/03/27 05:53:03;;;;;;;0.10;0.10;;;5.00;85.10;;;;;;5055752;28;20049;-77
2024/03/27 05:55:28;;;;;;;0.10;0.10;;;5.10;85.20;;;;;;5037795;28;20500;-78
2024/03/27 05:57:54;;;;;;;0.10;0.10;;;5.10;85.20;;;;;;5055737;28;20033;-77
2024/03/27 06:00:20;;;;;;;0.10;0.10;;;5.10;85.20;;;;;;5055139;28;20035;-77
2024/03/27 06:02:45;;;;;;;0.10;0.10;;;5.10;85.10;;;;;;5038161;28;20312;-76
2024/03/27 06:05:11;;;;;;;0.20;0.20;;;5.10;85.10;;;;;;5055806;28;20036;-76
2024/03/27 06:07:48;;;;;;;0.17;0.17;;;5.20;85.40;;;;;;5045586;28;20025;-82
2024/03/27 06:10:16;;;;;;;0.10;0.10;;;5.20;85.50;;;;;;5055990;28;20079;-77
2024/03/27 06:12:42;;;;;;;0.10;0.10;;;5.30;85.40;;;;;;5034215;28;20017;-77
2024/03/27 06:15:08;;;;;;;0.20;0.20;;;5.40;85.50;;;;;;5033868;28;20033;-80
2024/03/27 06:17:34;;;;;;;0.17;0.17;;;5.40;85.30;;;;;;5054566;28;20025;-76
2024/03/27 06:19:59;;;;;;;0.10;0.10;;;5.30;85.40;;;;;;5054136;28;20151;-77
2024/03/27 06:22:25;;;;;;;0.10;0.10;;;5.50;85.40;;;;;;5037709;28;20086;-77
2024/03/27 06:24:53;;;;;;;0.10;0.10;;;5.40;85.30;;;;;;5055137;28;20491;-77
2024/03/27 06:27:18;;;;;;;0.10;0.10;;;5.40;85.40;;;;;;5054817;28;20032;-77
2024/03/27 06:29:44;;;;;;;0.17;0.17;;;5.50;85.40;;;;;;5054970;28;20025;-77
2024/03/27 06:32:10;;;;;;;0.10;0.10;;;5.40;85.40;;;;;;5019810;28;20042;-78
2024/03/27 06:34:36;;;;;;;0.10;0.10;;;5.50;85.40;;;;;;5015772;28;20516;-77
2024/03/27 06:37:02;;;;;;;0.10;0.10;;;5.50;85.50;;;;;;5035373;28;20044;-77
2024/03/27 06:39:27;;;;;;;0.10;0.10;;;5.50;85.70;;;;;;5035527;28;20037;-79
2024/03/27 06:41:53;;;;;;;0.10;0.10;;;5.50;85.60;;;;;;5035681;28;20037;-79
2024/03/27 06:44:18;;;;;;;0.10;0.10;;;5.50;85.60;;;;;;5017728;28;20041;-77
2024/03/27 06:46:47;;;;;;;0.13;0.13;;;5.60;85.70;;;;;;5037629;28;20031;-80
2024/03/27 06:49:19;;;;;;;0.10;0.10;;;5.70;85.80;;;;;;5021376;28;20068;-79
2024/03/27 06:51:49;;;;;;;0.10;0.10;;;5.70;85.70;;;;;;5039105;28;20017;-79
2024/03/27 06:54:14;;;;;;;0.20;0.20;;;5.80;85.60;;;;;;5020400;28;20068;-78
2024/03/27 06:56:40;;;;;;;0.20;0.20;;;5.90;85.50;;;;;;5039136;28;20018;-80
2024/03/27 06:59:06;;;;;;;0.17;0.17;;;6.00;85.30;;;;;;5039200;28;20104;-79
2024/03/27 07:01:31;;;;;;;0.10;0.10;;;6.10;85.10;;;;;;5038182;28;20086;-79
2024/03/27 07:03:57;;;;;;;0.20;0.20;;;6.30;84.70;;;;;;5019939;28;20037;-79
2024/03/27 07:06:23;;;;;;;0.10;0.10;;;6.50;84.30;;;;;;5019218;28;20034;-79
2024/03/27 07:08:48;;;;;;;0.20;0.20;;;6.60;84.00;;;;;;5008468;28;20033;-80
2024/03/27 07:11:14;;;;;;;0.10;0.10;;;6.80;84.00;;;;;;5019159;28;20049;-79
2024/03/27 07:13:40;;;;;;;0.20;0.20;;;6.80;83.50;;;;;;5019169;28;20054;-79
2024/03/27 07:16:05;;;;;;;0.20;0.20;;;6.80;83.50;;;;;;5019005;28;20033;-79
2024/03/27 07:18:31;;;;;;;0.20;0.20;;;7.10;83.10;;;;;;5036713;28;20076;-79
2024/03/27 07:20:58;;;;;;;0.10;0.10;;;7.80;81.30;;;;;;5038393;28;20029;-80
2024/03/27 07:23:27;;;;;;;0.10;0.10;;;7.70;80.60;;;;;;5020721;28;20033;-79
2024/03/27 07:25:53;;;;;;;0.10;0.10;;;7.50;81.50;;;;;;5038182;28;20495;-80
2024/03/27 07:28:18;;;;;;;0.40;0.40;;;7.30;82.10;;;;;;5038578;28;20104;-79
2024/03/27 07:30:47;;;;;;;0.50;0.50;;;7.60;82.20;;;;;;5035249;28;20116;-79
2024/03/27 07:33:12;;;;;;;0.50;0.50;;;9.90;77.40;;;;;;5032733;28;20108;-80
2024/03/27 07:35:38;;;;;;;0.50;0.50;;;12.10;69.60;;;;;;5038675;28;20064;-81
2024/03/27 07:38:04;;;;;;;0.50;0.50;;;13.80;64.50;;;;;;5035406;28;20169;-81
2024/03/27 07:40:30;;;;;;;0.40;0.40;;;15.40;59.20;;;;;;5025368;28;20588;-81
2024/03/27 07:42:56;;;;;;;0.20;0.20;;;16.30;55.80;;;;;;5036109;28;20483;-80
2024/03/27 07:45:22;;;;;;;0.10;0.10;;;15.70;55.10;;;;;;5036752;28;20108;-80
2024/03/27 07:47:49;;;;;;;0.20;0.20;;;13.20;60.90;;;;;;5038068;28;20515;-81
2024/03/27 07:50:15;;;;;;;0.40;0.40;;;12.30;64.50;;;;;;5037669;28;20135;-80
2024/03/27 07:52:42;;;;;;;0.30;0.30;;;13.00;64.30;;;;;;5038354;28;20057;-80
2024/03/27 07:55:09;;;;;;;0.50;0.50;;;13.40;62.40;;;;;;5038167;28;20025;-80
2024/03/27 07:57:35;;;;;;;0.20;0.20;;;14.50;60.00;;;;;;5037956;28;20030;-80
2024/03/27 08:00:03;;;;;;;0.10;0.10;;;14.00;60.60;;;;;;5037488;28;20341;-79
2024/03/27 08:02:29;;;;;;;0.20;0.20;;;12.70;63.60;;;;;;5037616;28;20060;-79
2024/03/27 08:04:55;;;;;;;0.10;0.10;;;11.80;67.10;;;;;;5016492;28;20581;-80
2024/03/27 08:07:21;;;;;;;0.10;0.10;;;11.40;67.80;;;;;;5002785;28;20044;-79
2024/03/27 08:09:50;;;;;;;0.10;0.10;;;10.80;70.40;;;;;;5037545;28;20565;-79
2024/03/27 08:12:17;;;;;;;0.10;0.10;;;10.30;71.90;;;;;;5019917;28;20068;-80
2024/03/27 08:14:46;;;;;;;0.10;0.10;;;10.10;73.10;;;;;;5020114;28;20056;-79
2024/03/27 08:17:11;;;;;;;0.10;0.10;;;9.80;74.80;;;;;;5037129;28;20113;-80
2024/03/27 08:19:40;;;;;;;0.10;0.10;;;9.60;75.50;;;;;;5037642;28;20017;-79
2024/03/27 08:22:06;;;;;;;0.10;0.10;;;9.50;75.80;;;;;;5037745;28;20199;-80
2024/03/27 08:24:32;;;;;;;0.10;0.10;;;9.30;76.90;;;;;;5019301;28;20033;-79
2024/03/27 08:26:58;;;;;;;0.10;0.10;;;9.30;76.80;;;;;;5037345;28;20056;-79
2024/03/27 08:29:23;;;;;;;0.10;0.10;;;9.30;77.80;;;;;;5036763;28;20017;-79
2024/03/27 08:31:49;;;;;;;0.10;0.10;;;9.40;77.90;;;;;;5042891;28;20568;-79
2024/03/27 08:34:14;;;;;;;0.10;0.10;;;9.30;77.90;;;;;;5037337;28;20104;-78
2024/03/27 08:36:40;;;;;;;0.10;0.10;;;9.20;79.00;;;;;;5039669;28;20029;-79
2024/03/27 08:39:07;;;;;;;0.10;0.10;;;9.20;78.90;;;;;;5057131;28;20484;-80
2024/03/27 08:41:33;;;;;;;0.10;0.10;;;9.20;79.60;;;;;;5037229;28;20026;-79
2024/03/27 08:44:02;;;;;;;0.10;0.10;;;9.20;80.10;;;;;;5036990;28;20029;-79
2024/03/27 08:46:28;;;;;;;0.10;0.10;;;9.20;80.10;;;;;;5015624;28;20044;-79
2024/03/27 08:48:54;;;;;;;0.10;0.10;;;9.20;80.20;;;;;;5017191;28;20022;-79
2024/03/27 08:51:21;;;;;;;0.10;0.10;;;9.20;80.60;;;;;;5026889;28;20029;-80
2024/03/27 08:53:47;;;;;;;0.10;0.10;;;9.20;81.10;;;;;;5036951;28;20485;-79
2024/03/27 08:56:13;;;;;;;0.10;0.10;;;9.20;81.30;;;;;;5042074;28;20039;-79
2024/03/27 08:58:39;;;;;;;0.10;0.10;;;9.20;81.60;;;;;;5056655;28;20111;-79
2024/03/27 09:01:06;;;;;;;0.10;0.10;;;9.10;82.10;;;;;;5056959;28;20028;-79
2024/03/27 09:03:32;;;;;;;0.10;0.10;;;9.20;82.30;;;;;;5040765;28;20021;-79
2024/03/27 09:05:57;;;;;;;0.10;0.10;;;9.10;82.40;;;;;;5036731;28;20131;-78
2024/03/27 09:08:23;;;;;;;0.10;0.10;;;9.10;82.70;;;;;;5036440;28;20546;-80
2024/03/27 09:10:48;;;;;;;0.10;0.10;;;8.80;83.00;;;;;;5019993;28;20027;-79
2024/03/27 09:13:14;;;;;;;0.10;0.10;;;8.80;84.90;;;;;;5056478;28;20032;-78
2024/03/27 09:15:40;;;;;;;0.10;0.10;;;8.80;85.00;;;;;;5038673;28;20021;-79
2024/03/27 09:18:06;;;;;;;0.10;0.10;;;8.80;85.60;;;;;;5056807;28;20021;-79
2024/03/27 09:20:32;;;;;;;0.10;0.10;;;8.80;85.40;;;;;;5054968;28;20032;-79
2024/03/27 09:22:58;;;;;;;0.10;0.10;;;8.90;85.30;;;;;;5056448;28;20117;-79
2024/03/27 09:25:23;;;;;;;0.10;0.10;;;8.90;85.40;;;;;;5037914;28;20061;-79
2024/03/27 09:27:49;;;;;;;0.10;0.10;;;8.80;85.20;;;;;;5036284;28;20039;-79
2024/03/27 09:30:16;;;;;;;0.10;0.10;;;8.90;85.10;;;;;;5037404;28;20034;-78
2024/03/27 09:32:42;;;;;;;0.10;0.10;;;9.00;85.60;;;;;;5033770;28;20026;-80
2024/03/27 09:35:09;;;;;;;0.10;0.10;;;8.90;85.30;;;;;;5016796;28;20022;-79
2024/03/27 09:37:35;;;;;;;0.10;0.10;;;9.00;85.50;;;;;;5024744;28;20029;-79
2024/03/27 09:40:01;;;;;;;0.10;0.10;;;9.10;85.50;;;;;;5023415;28;20048;-79
2024/03/27 09:42:28;;;;;;;0.10;0.10;;;9.10;85.20;;;;;;5018797;28;20060;-80
2024/03/27 09:44:54;;;;;;;0.10;0.10;;;9.20;85.50;;;;;;5032829;28;20025;-80
2024/03/27 09:47:23;;;;;;;0.10;0.10;;;9.20;85.60;;;;;;5052874;28;20108;-79
2024/03/27 09:49:49;;;;;;;0.10;0.10;;;9.20;85.60;;;;;;5036350;28;20432;-80
2024/03/27 09:52:16;;;;;;;0.10;0.10;;;9.20;85.70;;;;;;5036276;28;20432;-79
2024/03/27 09:54:42;;;;;;;0.10;0.10;;;9.20;86.00;;;;;;5022275;28;20025;-80
2024/03/27 09:57:10;;;;;;;0.10;0.10;;;9.20;86.20;;;;;;5056381;28;20112;-80
2024/03/27 09:59:36;;;;;;;0.10;0.10;;;9.20;86.20;;;;;;5056199;28;20021;-80
2024/03/27 10:02:06;;;;;;;0.10;0.10;;;9.20;86.30;;;;;;5035147;28;20029;-79
2024/03/27 10:04:33;;;;;;;0.10;0.10;;;9.20;86.40;;;;;;5052730;28;20108;-80
2024/03/27 10:06:59;;;;;;;0.10;0.10;;;9.20;86.50;;;;;;5029710;28;20541;-79
2024/03/27 10:09:24;;;;;;;0.10;0.10;;;9.10;85.90;;;;;;5016475;28;20115;-79
2024/03/27 10:11:50;;;;;;;0.20;0.20;;;9.30;86.30;;;;;;5016294;28;20028;-79
2024/03/27 10:14:16;;;;;;;0.10;0.10;;;9.70;85.30;;;;;;5016203;28;20026;-79
2024/03/27 10:16:43;;;;;;;0.10;0.10;;;10.10;84.60;;;;;;5052625;28;20036;-80
2024/03/27 10:19:09;;;;;;;0.10;0.10;;;10.30;83.60;;;;;;5056042;28;20033;-80
2024/03/27 10:21:34;;;;;;;0.10;0.10;;;10.30;83.00;;;;;;5039387;28;20155;-80
2024/03/27 10:24:00;;;;;;;0.20;0.20;;;10.60;82.60;;;;;;5035745;28;20025;-80
2024/03/27 10:26:30;;;;;;;0.20;0.20;;;10.80;81.90;;;;;;5039654;28;20040;-80
2024/03/27 10:28:57;;;;;;;0.20;0.20;;;11.20;81.70;;;;;;5039707;28;20564;-80
2024/03/27 10:31:23;;;;;;;0.10;0.10;;;11.40;80.60;;;;;;5039159;28;20049;-80
2024/03/27 10:33:49;;;;;;;0.20;0.20;;;11.60;80.10;;;;;;5021580;28;20106;-79
2024/03/27 10:36:23;;;;;;;0.10;0.10;;;11.80;80.00;;;;;;5020099;28;20493;-81
2024/03/27 10:38:54;;;;;;;0.10;0.10;;;11.90;79.10;;;;;;5002438;28;20034;-81
2024/03/27 10:41:22;;;;;;;0.10;0.10;;;11.80;78.50;;;;;;5035414;28;20079;-80
2024/03/27 10:43:49;;;;;;;0.10;0.10;;;11.80;78.30;;;;;;5039503;28;20029;-80
2024/03/27 10:46:16;;;;;;;0.20;0.20;;;11.90;78.00;;;;;;5038795;28;20117;-80
2024/03/27 10:48:42;;;;;;;0.10;0.10;;;12.10;78.20;;;;;;5039411;28;20105;-80
2024/03/27 10:51:10;;;;;;;0.10;0.10;;;12.30;78.00;;;;;;5039747;28;20022;-80
2024/03/27 10:53:37;;;;;;;0.10;0.10;;;12.50;77.20;;;;;;5039108;28;20013;-81
2024/03/27 10:56:02;;;;;;;0.10;0.10;;;12.40;76.50;;;;;;5038857;28;20029;-80
2024/03/27 10:58:29;;;;;;;0.20;0.20;;;12.30;75.30;;;;;;5039268;28;20025;-80
2024/03/27 11:00:56;;;;;;;0.10;0.10;;;12.30;75.40;;;;;;5039053;28;20463;-80
2024/03/27 11:03:26;;;;;;;0.10;0.10;;;12.30;76.20;;;;;;5018476;28;20028;-81
2024/03/27 11:05:52;;;;;;;0.10;0.10;;;12.30;75.50;;;;;;5019076;28;20029;-80
2024/03/27 11:08:19;;;;;;;0.10;0.10;;;12.40;75.30;;;;;;5019530;28;20026;-80
2024/03/27 11:10:45;;;;;;;0.20;0.20;;;12.30;74.70;;;;;;5008149;28;20140;-80
2024/03/27 11:13:12;;;;;;;0.10;0.10;;;12.20;75.10;;;;;;5021136;28;20520;-80
2024/03/27 11:15:41;;;;;;;0.10;0.10;;;12.20;74.50;;;;;;5038883;28;20026;-80
2024/03/27 11:18:15;;;;;;;0.10;0.10;;;12.20;74.70;;;;;;5020533;28;20856;-79
2024/03/27 11:20:54;;;;;;;0.10;0.10;;;12.30;74.60;;;;;;5038046;28;20050;-80
2024/03/27 11:23:32;;;;;;;0.10;0.10;;;12.40;74.50;;;;;;5038667;28;20022;-80
2024/03/27 11:25:58;;;;;;;0.10;0.10;;;12.40;72.60;;;;;;5038353;28;20508;-80
2024/03/27 11:28:24;;;;;;;0.20;0.20;;;12.50;73.10;;;;;;5038710;28;20068;-80
2024/03/27 11:30:49;;;;;;;0.20;0.20;;;12.40;72.00;;;;;;5043452;28;20064;-80
2024/03/27 11:33:16;;;;;;;0.10;0.10;;;12.60;72.80;;;;;;5026786;28;20478;-80
2024/03/27 11:35:42;;;;;;;0.20;0.20;;;12.80;72.40;;;;;;5020461;28;20029;-80
2024/03/27 11:38:08;;;;;;;0.20;0.20;;;12.80;70.80;;;;;;5038344;28;20026;-80
2024/03/27 11:40:34;;;;;;;0.10;0.10;;;12.90;72.60;;;;;;5034758;28;20049;-80
2024/03/27 11:43:04;;;;;;;0.10;0.10;;;13.00;71.70;;;;;;5017285;28;20034;-79
2024/03/27 11:45:30;;;;;;;0.10;0.10;;;12.80;70.30;;;;;;5021751;28;20132;-80
2024/03/27 11:47:58;;;;;;;0.10;0.10;;;12.80;71.20;;;;;;5039211;28;20108;-80
2024/03/27 11:50:24;;;;;;;0.10;0.10;;;12.70;69.90;;;;;;5034450;28;20021;-80
2024/03/27 11:52:50;;;;;;;0.10;0.10;;;12.60;71.10;;;;;;5034942;28;20319;-80
2024/03/27 11:55:17;;;;;;;0.10;0.10;;;12.80;69.90;;;;;;5016700;28;20121;-81
2024/03/27 11:57:43;;;;;;;0.20;0.20;;;12.80;69.00;;;;;;5017986;28;20477;-80
2024/03/27 12:00:11;;;;;;;0.10;0.10;;;12.80;69.70;;;;;;5018371;28;20135;-79
2024/03/27 12:02:39;;;;;;;0.10;0.10;;;13.00;68.70;;;;;;5026169;28;20374;-81
2024/03/27 12:05:05;;;;;;;0.17;0.17;;;13.20;70.30;;;;;;5054195;28;20043;-80
2024/03/27 12:07:32;;;;;;;0.10;0.10;;;13.30;69.70;;;;;;5057866;28;20018;-79
2024/03/27 12:10:00;;;;;;;0.10;0.10;;;13.40;68.70;;;;;;5053710;28;20060;-81
2024/03/27 12:12:30;;;;;;;0.10;0.10;;;13.50;67.60;;;;;;5019977;28;20036;-79
2024/03/27 12:14:57;;;;;;;0.20;0.20;;;13.50;65.70;;;;;;5020317;28;20071;-79
2024/03/27 12:17:31;;;;;;;0.10;0.10;;;13.50;66.70;;;;;;5019343;28;20608;-79
2024/03/27 12:19:58;;;;;;;0.10;0.10;;;13.80;67.30;;;;;;5037753;28;20026;-80
2024/03/27 12:22:28;;;;;;;0.10;0.10;;;13.90;66.80;;;;;;5019963;28;20099;-80
2024/03/27 12:24:54;;;;;;;0.10;0.10;;;14.00;64.70;;;;;;5037223;28;20120;-79
2024/03/27 12:27:21;;;;;;;0.10;0.10;;;13.70;64.90;;;;;;5037511;28;20038;-80
2024/03/27 12:29:53;;;;;;;0.10;0.10;;;13.60;65.00;;;;;;5037283;28;20030;-79
2024/03/27 12:32:19;;;;;;;0.10;0.10;;;13.70;65.20;;;;;;5037524;28;20130;-79
2024/03/27 12:34:45;;;;;;;0.10;0.10;;;13.50;64.20;;;;;;5037442;28;20034;-81
2024/03/27 12:37:11;;;;;;;0.10;0.10;;;13.50;65.20;;;;;;5037167;28;20025;-79
2024/03/27 12:39:37;;;;;;;0.10;0.10;;;13.50;64.40;;;;;;5037133;28;20044;-80
2024/03/27 12:42:04;;;;;;;0.10;0.10;;;13.60;64.00;;;;;;5037338;28;20075;-79
2024/03/27 12:44:31;;;;;;;0.10;0.10;;;13.60;64.90;;;;;;5038292;28;20080;-79
2024/03/27 12:46:56;;;;;;;0.10;0.10;;;13.60;65.50;;;;;;5057136;28;20434;-79
2024/03/27 12:49:22;;;;;;;0.10;0.10;;;13.50;64.10;;;;;;5045321;28;20108;-79
2024/03/27 12:51:48;;;;;;;0.10;0.10;;;13.50;64.90;;;;;;5036968;28;20576;-80
2024/03/27 12:54:13;;;;;;;0.10;0.10;;;13.60;64.80;;;;;;5037095;28;20022;-80
2024/03/27 12:56:39;;;;;;;0.20;0.20;;;13.70;64.50;;;;;;5036728;28;20119;-81
2024/03/27 12:59:05;;;;;;;0.10;0.10;;;13.60;65.40;;;;;;5055505;28;20047;-80
2024/03/27 13:01:30;;;;;;;0.10;0.10;;;13.60;64.10;;;;;;5039202;28;20029;-81
2024/03/27 13:03:56;;;;;;;0.10;0.10;;;13.70;64.10;;;;;;5037319;28;20088;-80
2024/03/27 13:06:21;;;;;;;0.10;0.10;;;13.70;63.70;;;;;;5036933;28;20029;-80
2024/03/27 13:08:47;;;;;;;0.10;0.10;;;13.70;62.50;;;;;;5048319;28;20086;-80
2024/03/27 13:11:13;;;;;;;0.10;0.10;;;13.70;62.90;;;;;;5056519;28;20231;-80
2024/03/27 13:13:38;;;;;;;0.10;0.10;;;13.40;62.70;;;;;;5056822;28;20037;-80
2024/03/27 13:16:04;;;;;;;0.10;0.10;;;13.30;63.50;;;;;;5055097;28;20063;-81
2024/03/27 13:18:30;;;;;;;0.10;0.10;;;13.30;64.50;;;;;;5044037;28;20021;-82
2024/03/27 13:20:55;;;;;;;0.10;0.10;;;13.30;62.20;;;;;;4999457;28;20026;-78
2024/03/27 13:23:21;;;;;;;0.10;0.10;;;13.20;60.70;;;;;;5002123;28;20075;-80
2024/03/27 13:25:50;;;;;;;0.10;0.10;;;13.60;61.40;;;;;;5021449;28;20466;-81
2024/03/27 13:28:16;;;;;;;0.10;0.10;;;13.70;60.90;;;;;;5007800;28;20453;-79
2024/03/27 13:30:41;;;;;;;0.10;0.10;;;13.80;58.20;;;;;;5010786;28;20081;-79
2024/03/27 13:33:07;;;;;;;0.10;0.10;;;13.90;58.90;;;;;;5026992;28;20026;-78
2024/03/27 13:35:32;;;;;;;0.10;0.10;;;13.80;61.10;;;;;;5023774;28;20025;-78
2024/03/27 13:37:58;;;;;;;0.10;0.10;;;13.80;61.30;;;;;;5027421;28;20034;-78
2024/03/27 13:40:24;;;;;;;0.10;0.10;;;14.00;61.60;;;;;;5006260;28;20033;-79
2024/03/27 13:42:50;;;;;;;0.10;0.10;;;14.00;61.50;;;;;;5027285;28;20033;-77
2024/03/27 13:45:16;;;;;;;0.10;0.10;;;13.80;61.10;;;;;;5027907;28;20028;-77
2024/03/27 13:47:51;;;;;;;0.10;0.10;;;13.80;61.80;;;;;;5025691;28;20104;-78
2024/03/27 13:50:17;;;;;;;0.10;0.10;;;13.80;60.70;;;;;;5013980;28;20028;-77
2024/03/27 13:52:43;;;;;;;0.10;0.10;;;13.90;60.60;;;;;;5026219;28;20025;-78
2024/03/27 13:55:08;;;;;;;0.10;0.10;;;14.00;60.50;;;;;;5030504;28;20020;-77
2024/03/27 13:57:36;;;;;;;0.10;0.10;;;13.90;60.70;;;;;;5032161;28;20527;-77
2024/03/27 14:00:02;;;;;;;0.10;0.10;;;13.80;59.40;;;;;;5030667;28;20100;-77
2024/03/27 14:02:28;;;;;;;0.10;0.10;;;13.80;60.20;;;;;;5021478;28;20030;-78
2024/03/27 14:04:53;;;;;;;0.10;0.10;;;13.70;59.90;;;;;;5023562;28;20033;-78
2024/03/27 14:07:19;;;;;;;0.10;0.10;;;13.80;60.20;;;;;;5040939;28;20108;-78
2024/03/27 14:09:45;;;;;;;0.10;0.10;;;13.90;60.40;;;;;;5040921;28;20499;-78
2024/03/27 14:12:10;;;;;;;0.10;0.10;;;14.00;60.20;;;;;;5036186;28;20025;-78
2024/03/27 14:14:36;;;;;;;0.10;0.10;;;14.00;60.90;;;;;;5012610;28;20010;-79
2024/03/27 14:17:02;;;;;;;0.17;0.17;;;13.70;60.90;;;;;;5012969;28;20473;-78
2024/03/27 14:19:28;;;;;;;0.10;0.10;;;13.50;61.10;;;;;;5011812;28;20085;-78
2024/03/27 14:21:54;;;;;;;0.10;0.10;;;13.60;59.00;;;;;;5029830;28;20029;-78
2024/03/27 14:24:20;;;;;;;0.10;0.10;;;13.60;59.10;;;;;;5033286;28;20093;-78
2024/03/27 14:26:46;;;;;;;0.10;0.10;;;13.80;58.30;;;;;;5029167;28;20105;-79
2024/03/27 14:29:12;;;;;;;0.10;0.10;;;14.10;55.40;;;;;;5010557;28;20362;-78
2024/03/27 14:31:38;;;;;;;0.10;0.10;;;14.40;55.60;;;;;;5025864;28;20038;-79
2024/03/27 14:34:04;;;;;;;0.10;0.10;;;14.30;55.30;;;;;;5031857;28;20049;-78
2024/03/27 14:36:29;;;;;;;0.10;0.10;;;14.00;57.30;;;;;;5026742;28;20037;-78
2024/03/27 14:38:55;;;;;;;0.10;0.10;;;13.70;58.50;;;;;;5030196;28;20017;-77
2024/03/27 14:41:21;;;;;;;0.10;0.10;;;13.90;59.80;;;;;;5026134;28;20033;-77
2024/03/27 14:43:46;;;;;;;0.10;0.10;;;13.90;59.20;;;;;;5029642;28;20068;-77
2024/03/27 14:46:12;;;;;;;0.10;0.10;;;13.90;61.00;;;;;;5026003;28;20049;-79
2024/03/27 14:48:38;;;;;;;0.10;0.10;;;13.70;59.30;;;;;;5025833;28;20017;-78
2024/03/27 14:51:04;;;;;;;0.10;0.10;;;14.00;59.10;;;;;;5027145;28;20022;-79
2024/03/27 14:53:30;;;;;;;0.10;0.10;;;14.00;57.60;;;;;;5027004;28;20034;-77
2024/03/27 14:55:56;;;;;;;0.10;0.10;;;13.90;57.20;;;;;;5034885;28;20029;-78
2024/03/27 14:58:22;;;;;;;0.10;0.10;;;13.90;57.30;;;;;;5027152;28;20018;-78
2024/03/27 15:00:48;;;;;;;0.10;0.10;;;13.80;55.40;;;;;;5025659;28;20026;-77
2024/03/27 15:03:14;;;;;;;0.10;0.10;;;13.80;54.10;;;;;;5027603;28;20030;-78
2024/03/27 15:05:39;;;;;;;0.10;0.10;;;13.70;54.60;;;;;;5027420;28;20026;-77
2024/03/27 15:08:05;;;;;;;0.10;0.10;;;13.30;55.20;;;;;;5026959;28;20022;-77
2024/03/27 15:10:31;;;;;;;0.10;0.10;;;13.20;55.70;;;;;;5026198;28;20112;-77
2024/03/27 15:12:57;;;;;;;0.10;0.10;;;13.20;56.70;;;;;;5026609;28;20092;-77
2024/03/27 15:15:25;;;;;;;0.10;0.10;;;13.20;55.00;;;;;;5020614;28;20022;-80
2024/03/27 15:17:50;;;;;;;0.10;0.10;;;13.40;54.80;;;;;;5019196;28;20018;-76
2024/03/27 15:20:16;;;;;;;0.10;0.10;;;13.60;55.10;;;;;;5023767;28;20453;-76
2024/03/27 15:22:41;;;;;;;0.10;0.10;;;13.60;55.60;;;;;;5019579;28;20026;-76
2024/03/27 15:25:07;;;;;;;0.10;0.10;;;13.60;55.30;;;;;;5019017;28;20021;-77
2024/03/27 15:27:33;;;;;;;0.10;0.10;;;13.70;56.40;;;;;;5032115;28;20109;-76
2024/03/27 15:29:59;;;;;;;0.10;0.10;;;13.70;56.40;;;;;;5032449;28;20036;-76
2024/03/27 15:32:28;;;;;;;0.10;0.10;;;13.70;56.10;;;;;;5030716;28;20420;-76
2024/03/27 15:34:53;;;;;;;0.10;0.10;;;13.60;55.90;;;;;;5015274;28;20104;-77
2024/03/27 15:37:21;;;;;;;0.10;0.10;;;13.60;56.60;;;;;;5028660;28;20060;-76
2024/03/27 15:39:47;;;;;;;0.10;0.10;;;13.30;57.90;;;;;;5024058;28;20098;-77
2024/03/27 15:42:12;;;;;;;0.10;0.10;;;13.20;57.70;;;;;;5027135;28;20025;-76
2024/03/27 15:44:38;;;;;;;0.10;0.10;;;13.10;59.00;;;;;;5009449;28;20068;-76
2024/03/27 15:47:04;;;;;;;0.10;0.10;;;13.00;59.50;;;;;;5007327;28;20056;-76
2024/03/27 15:49:32;;;;;;;0.10;0.10;;;13.00;60.00;;;;;;5025416;28;20030;-77
2024/03/27 15:51:58;;;;;;;0.10;0.10;;;13.10;60.30;;;;;;5007838;28;20014;-77
2024/03/27 15:54:25;;;;;;;0.10;0.10;;;12.90;60.50;;;;;;5018257;28;20046;-77
2024/03/27 15:56:50;;;;;;;0.10;0.10;;;12.80;61.10;;;;;;5018315;28;20036;-77
2024/03/27 15:59:16;;;;;;;0.10;0.10;;;12.70;60.90;;;;;;5024349;28;20136;-76
2024/03/27 16:01:42;;;;;;;0.03;0.03;;;12.40;61.30;;;;;;5022045;28;20393;-76
2024/03/27 16:04:07;;;;;;;0.10;0.10;;;12.30;62.40;;;;;;5004675;28;20094;-76
2024/03/27 16:06:33;;;;;;;0.10;0.10;;;12.40;62.20;;;;;;5027682;28;20374;-76
2024/03/27 16:08:58;;;;;;;0.10;0.10;;;12.40;62.60;;;;;;5023357;28;20114;-76
2024/03/27 16:11:24;;;;;;;0.10;0.10;;;12.40;61.80;;;;;;5026007;28;20028;-75
2024/03/27 16:13:50;;;;;;;0.10;0.10;;;12.30;61.60;;;;;;5029092;28;20033;-75
2024/03/27 16:16:15;;;;;;;0.10;0.10;;;12.30;61.20;;;;;;5008570;28;20025;-75
2024/03/27 16:18:41;;;;;;;0.10;0.10;;;12.40;61.10;;;;;;5005737;28;20049;-75
2024/03/27 16:21:07;;;;;;;0.10;0.10;;;12.40;61.90;;;;;;5025664;28;20033;-75
2024/03/27 16:23:33;;;;;;;0.10;0.10;;;12.50;61.60;;;;;;5024169;28;20041;-76
2024/03/27 16:25:58;;;;;;;0.10;0.10;;;12.50;61.60;;;;;;5025200;28;20033;-76
2024/03/27 16:28:24;;;;;;;0.10;0.10;;;12.50;62.00;;;;;;5024729;28;20033;-76
2024/03/27 16:30:50;;;;;;;0.10;0.10;;;12.40;59.20;;;;;;5026166;28;20042;-76
2024/03/27 16:33:16;;;;;;;0.10;0.10;;;12.30;58.90;;;;;;5029383;28;20440;-75
2024/03/27 16:35:41;;;;;;;0.10;0.10;;;12.20;59.10;;;;;;5013006;28;20029;-76
2024/03/27 16:38:07;;;;;;;0.10;0.10;;;12.10;59.30;;;;;;5028243;28;20162;-76
2024/03/27 16:40:33;;;;;;;0.10;0.10;;;12.10;59.70;;;;;;5010957;28;20584;-76
2024/03/27 16:42:58;;;;;;;0.10;0.10;;;12.10;60.30;;;;;;5026865;28;20022;-76
2024/03/27 16:45:24;;;;;;;0.10;0.10;;;12.10;60.40;;;;;;5007287;28;20064;-76
2024/03/27 16:47:53;;;;;;;0.10;0.10;;;12.10;60.10;;;;;;5026700;28;20095;-77
2024/03/27 16:50:19;;;;;;;0.10;0.10;;;12.00;61.00;;;;;;5009350;28;20488;-76
2024/03/27 16:52:44;;;;;;;0.10;0.10;;;12.10;61.50;;;;;;5010535;28;20040;-77
2024/03/27 16:55:10;;;;;;;0.10;0.10;;;11.90;60.90;;;;;;5027303;28;20439;-76
2024/03/27 16:57:36;;;;;;;0.10;0.10;;;12.00;61.20;;;;;;5011974;28;20452;-75
2024/03/27 17:00:02;;;;;;;0.10;0.10;;;12.00;60.90;;;;;;5018769;28;20117;-75
2024/03/27 17:02:27;;;;;;;0.10;0.10;;;12.00;61.70;;;;;;5003100;28;20029;-76
2024/03/27 17:04:53;;;;;;;0.10;0.10;;;12.10;61.40;;;;;;5027094;28;20030;-76
2024/03/27 17:07:18;;;;;;;0.10;0.10;;;12.20;61.40;;;;;;5020648;28;20033;-76
2024/03/27 17:09:44;;;;;;;0.10;0.10;;;12.10;61.30;;;;;;5008405;28;20026;-76
2024/03/27 17:12:10;;;;;;;0.10;0.10;;;12.00;60.60;;;;;;5024800;28;20060;-77
2024/03/27 17:14:41;;;;;;;0.00;0.00;;;12.00;60.70;;;;;;5026195;28;20021;-76
2024/03/27 17:17:08;;;;;;;0.10;0.10;;;11.80;61.30;;;;;;5009862;28;20030;-76
2024/03/27 17:19:33;;;;;;;0.10;0.10;;;11.80;61.70;;;;;;5009170;28;20026;-76
2024/03/27 17:21:59;;;;;;;0.10;0.10;;;11.80;62.30;;;;;;5024831;28;20040;-77
2024/03/27 17:24:25;;;;;;;0.10;0.10;;;11.70;63.10;;;;;;5024895;28;20392;-76
2024/03/27 17:26:51;;;;;;;0.00;0.00;;;11.60;63.40;;;;;;5003825;28;20021;-76
2024/03/27 17:29:16;;;;;;;0.10;0.10;;;11.70;63.40;;;;;;5023660;28;20037;-76
2024/03/27 17:31:42;;;;;;;0.10;0.10;;;11.50;64.30;;;;;;5022120;28;20065;-77
2024/03/27 17:34:08;;;;;;;0.00;0.00;;;11.50;64.70;;;;;;4998098;28;20084;-76
2024/03/27 17:36:33;;;;;;;0.03;0.03;;;11.50;65.10;;;;;;4997875;28;20056;-75
2024/03/27 17:38:59;;;;;;;0.10;0.10;;;11.40;66.00;;;;;;5000267;28;20084;-76
2024/03/27 17:41:25;;;;;;;0.10;0.10;;;11.30;66.10;;;;;;5020056;28;20018;-76
2024/03/27 17:43:51;;;;;;;0.10;0.10;;;11.30;67.00;;;;;;5025556;28;20033;-76
2024/03/27 17:46:17;;;;;;;0.10;0.10;;;11.20;67.50;;;;;;5026189;28;20134;-76
2024/03/27 17:48:43;;;;;;;0.13;0.10;;;11.10;67.20;;;;;;5020852;28;20073;-77
2024/03/27 17:51:08;;;;;;;0.00;0.00;;;11.10;67.70;;;;;;5034615;28;20045;-75
2024/03/27 17:53:34;;;;;;;0.10;0.10;;;11.00;68.00;;;;;;5015581;28;20060;-74
2024/03/27 17:56:06;;;;;;;0.00;0.00;;;10.90;68.30;;;;;;5010812;28;20026;-87
2024/03/27 17:58:33;;;;;;;0.00;0.00;;;10.90;68.60;;;;;;5026879;28;20054;-74
2024/03/27 18:01:06;;;;;;;0.10;0.10;;;11.00;70.20;;;;;;5006338;28;20030;-76
2024/03/27 18:03:32;;;;;;;0.08;0.08;;;10.90;69.90;;;;;;5017524;28;20572;-76
2024/03/27 18:05:57;;;;;;;0.00;0.00;;;10.90;70.20;;;;;;5016654;28;20108;-80
2024/03/27 18:08:23;;;;;;;0.10;0.10;;;10.80;70.40;;;;;;5032256;28;20033;-77
2024/03/27 18:10:52;;;;;;;0.10;0.10;;;10.80;70.60;;;;;;5034011;28;20113;-80
2024/03/27 18:13:17;;;;;;;0.10;0.10;;;10.80;70.80;;;;;;5027478;28;20026;-82
2024/03/27 18:15:56;;;;;;;0.10;0.10;;;10.80;71.40;;;;;;5026866;28;20022;-84